Terminal Aerodrome Forecast
Issued by NWS Brownsville, TX

Home | Current Version | Previous Version | Text Only | Print | Product List | Glossary On
Versions: 1 2 3 4 5 6 7 8 9 10 11 12 13 14
518
FTUS44 KBRO 221737
TAFHRL
TAF
KHRL 221737Z 2218/2318 16018G26KT P6SM FEW050 SCT250
     FM230300 16011KT P6SM FEW020 SCT250
     FM231500 17020G27KT P6SM SCT040 SCT250=

USA.gov is the U.S. government's official web portal to all federal, state and local government web resources and services.